sensor_id;sensor_type;location;lat;lon;timestamp;temperature;humidity
3186;DHT22;1604;53.700;10.252;2023-09-30T00:00:15;12.70;99.90
3186;DHT22;1604;53.700;10.252;2023-09-30T00:03:18;12.80;99.90
3186;DHT22;1604;53.700;10.252;2023-09-30T00:06:26;12.70;99.90
3186;DHT22;1604;53.700;10.252;2023-09-30T00:09:28;12.70;99.90
3186;DHT22;1604;53.700;10.252;2023-09-30T00:12:30;12.70;99.90
3186;DHT22;1604;53.700;10.252;2023-09-30T00:15:32;12.60;99.90
3186;DHT22;1604;53.700;10.252;2023-09-30T00:18:35;12.70;99.90
3186;DHT22;1604;53.700;10.252;2023-09-30T00:21:37;12.70;99.90
3186;DHT22;1604;53.700;10.252;2023-09-30T00:24:39;12.70;99.90
3186;DHT22;1604;53.700;10.252;2023-09-30T00:27:41;12.70;99.90
3186;DHT22;1604;53.700;10.252;2023-09-30T00:30:43;12.60;99.90
3186;DHT22;1604;53.700;10.252;2023-09-30T00:33:49;12.60;99.90
3186;DHT22;1604;53.700;10.252;2023-09-30T00:36:51;12.60;99.90
3186;DHT22;1604;53.700;10.252;2023-09-30T00:40:02;12.60;99.90
3186;DHT22;1604;53.700;10.252;2023-09-30T00:43:06;12.60;99.90
3186;DHT22;1604;53.700;10.252;2023-09-30T00:46:16;12.50;99.90
3186;DHT22;1604;53.700;10.252;2023-09-30T00:49:21;12.50;99.90
3186;DHT22;1604;53.700;10.252;2023-09-30T00:52:27;12.50;99.90
3186;DHT22;1604;53.700;10.252;2023-09-30T00:55:29;12.50;99.90
3186;DHT22;1604;53.700;10.252;2023-09-30T00:58:32;12.50;99.90
3186;DHT22;1604;53.700;10.252;2023-09-30T01:01:35;12.50;99.90
3186;DHT22;1604;53.700;10.252;2023-09-30T01:04:38;12.50;99.90
3186;DHT22;1604;53.700;10.252;2023-09-30T01:07:41;12.50;99.90
3186;DHT22;1604;53.700;10.252;2023-09-30T01:10:43;12.40;99.90
3186;DHT22;1604;53.700;10.252;2023-09-30T01:13:45;12.40;99.90
3186;DHT22;1604;53.700;10.252;2023-09-30T01:16:48;12.30;99.90
3186;DHT22;1604;53.700;10.252;2023-09-30T01:19:51;12.30;99.90
3186;DHT22;1604;53.700;10.252;2023-09-30T01:22:56;12.30;99.90
3186;DHT22;1604;53.700;10.252;2023-09-30T01:26:01;12.30;99.90
3186;DHT22;1604;53.700;10.252;2023-09-30T01:29:03;12.30;99.90
3186;DHT22;1604;53.700;10.252;2023-09-30T01:32:05;12.30;99.90
3186;DHT22;1604;53.700;10.252;2023-09-30T01:35:12;12.20;99.90
3186;DHT22;1604;53.700;10.252;2023-09-30T01:38:15;12.20;99.90
3186;DHT22;1604;53.700;10.252;2023-09-30T01:41:17;12.20;99.90
3186;DHT22;1604;53.700;10.252;2023-09-30T01:44:20;12.30;99.90
3186;DHT22;1604;53.700;10.252;2023-09-30T01:47:22;12.30;99.90
3186;DHT22;1604;53.700;10.252;2023-09-30T01:50:33;12.30;99.90
3186;DHT22;1604;53.700;10.252;2023-09-30T01:53:36;12.30;99.90
3186;DHT22;1604;53.700;10.252;2023-09-30T01:56:38;12.30;99.90
3186;DHT22;1604;53.700;10.252;2023-09-30T01:59:41;12.30;99.90
3186;DHT22;1604;53.700;10.252;2023-09-30T02:02:44;12.40;99.90
3186;DHT22;1604;53.700;10.252;2023-09-30T02:05:48;12.40;99.90
3186;DHT22;1604;53.700;10.252;2023-09-30T02:08:52;12.50;99.90
3186;DHT22;1604;53.700;10.252;2023-09-30T02:11:53;12.50;99.90
3186;DHT22;1604;53.700;10.252;2023-09-30T02:14:57;12.50;99.90
3186;DHT22;1604;53.700;10.252;2023-09-30T02:17:58;12.40;99.90
3186;DHT22;1604;53.700;10.252;2023-09-30T02:21:01;12.40;99.90
3186;DHT22;1604;53.700;10.252;2023-09-30T02:24:05;12.40;99.90
3186;DHT22;1604;53.700;10.252;2023-09-30T02:27:08;12.40;99.90
3186;DHT22;1604;53.700;10.252;2023-09-30T02:30:11;12.40;99.90
3186;DHT22;1604;53.700;10.252;2023-09-30T02:33:16;12.40;99.90
3186;DHT22;1604;53.700;10.252;2023-09-30T02:36:20;12.30;99.90
3186;DHT22;1604;53.700;10.252;2023-09-30T02:39:23;12.30;99.90
3186;DHT22;1604;53.700;10.252;2023-09-30T02:42:27;12.20;99.90
3186;DHT22;1604;53.700;10.252;2023-09-30T02:45:30;12.20;99.90
3186;DHT22;1604;53.700;10.252;2023-09-30T02:48:32;12.20;99.90
3186;DHT22;1604;53.700;10.252;2023-09-30T02:51:34;12.20;99.90
3186;DHT22;1604;53.700;10.252;2023-09-30T02:54:37;12.20;99.90
3186;DHT22;1604;53.700;10.252;2023-09-30T02:57:41;12.10;99.90
3186;DHT22;1604;53.700;10.252;2023-09-30T03:00:47;12.10;99.90
3186;DHT22;1604;53.700;10.252;2023-09-30T03:03:49;12.10;99.90
3186;DHT22;1604;53.700;10.252;2023-09-30T03:06:51;12.10;99.90
3186;DHT22;1604;53.700;10.252;2023-09-30T03:09:58;12.00;99.90
3186;DHT22;1604;53.700;10.252;2023-09-30T03:13:02;12.00;99.90
3186;DHT22;1604;53.700;10.252;2023-09-30T03:16:04;12.00;99.90
3186;DHT22;1604;53.700;10.252;2023-09-30T03:19:06;12.00;99.90
3186;DHT22;1604;53.700;10.252;2023-09-30T03:22:09;12.00;99.90
3186;DHT22;1604;53.700;10.252;2023-09-30T03:25:14;12.00;99.90
3186;DHT22;1604;53.700;10.252;2023-09-30T03:28:18;12.00;99.90
3186;DHT22;1604;53.700;10.252;2023-09-30T03:31:20;12.00;99.90
3186;DHT22;1604;53.700;10.252;2023-09-30T03:34:23;12.00;99.90
3186;DHT22;1604;53.700;10.252;2023-09-30T03:37:25;12.00;99.90
3186;DHT22;1604;53.700;10.252;2023-09-30T03:40:29;12.10;99.90
3186;DHT22;1604;53.700;10.252;2023-09-30T03:43:34;12.10;99.90
3186;DHT22;1604;53.700;10.252;2023-09-30T03:46:41;12.10;99.90
3186;DHT22;1604;53.700;10.252;2023-09-30T03:49:43;12.00;99.90
3186;DHT22;1604;53.700;10.252;2023-09-30T03:52:48;12.00;99.90
3186;DHT22;1604;53.700;10.252;2023-09-30T03:55:52;12.00;99.90
3186;DHT22;1604;53.700;10.252;2023-09-30T03:58:53;12.00;99.90
3186;DHT22;1604;53.700;10.252;2023-09-30T04:01:55;12.00;99.90
3186;DHT22;1604;53.700;10.252;2023-09-30T04:04:58;11.90;99.90
3186;DHT22;1604;53.700;10.252;2023-09-30T04:08:00;11.90;99.90
3186;DHT22;1604;53.700;10.252;2023-09-30T04:11:04;11.90;99.90
3186;DHT22;1604;53.700;10.252;2023-09-30T04:14:06;11.90;99.90
3186;DHT22;1604;53.700;10.252;2023-09-30T04:17:09;11.90;99.90
3186;DHT22;1604;53.700;10.252;2023-09-30T04:20:11;11.90;99.90
3186;DHT22;1604;53.700;10.252;2023-09-30T04:23:17;11.90;99.90
3186;DHT22;1604;53.700;10.252;2023-09-30T04:26:22;11.80;99.90
3186;DHT22;1604;53.700;10.252;2023-09-30T04:29:24;11.90;99.90
3186;DHT22;1604;53.700;10.252;2023-09-30T04:32:25;11.80;99.90
3186;DHT22;1604;53.700;10.252;2023-09-30T04:35:28;11.70;99.90
3186;DHT22;1604;53.700;10.252;2023-09-30T04:38:31;11.70;99.90
3186;DHT22;1604;53.700;10.252;2023-09-30T04:41:34;11.70;99.90
3186;DHT22;1604;53.700;10.252;2023-09-30T04:44:36;11.70;99.90
3186;DHT22;1604;53.700;10.252;2023-09-30T04:47:38;11.70;99.90
3186;DHT22;1604;53.700;10.252;2023-09-30T04:50:40;11.70;99.90
3186;DHT22;1604;53.700;10.252;2023-09-30T04:53:42;11.70;99.90
3186;DHT22;1604;53.700;10.252;2023-09-30T04:56:47;11.60;99.90
3186;DHT22;1604;53.700;10.252;2023-09-30T04:59:48;11.70;99.90
3186;DHT22;1604;53.700;10.252;2023-09-30T05:02:51;11.70;99.90
3186;DHT22;1604;53.700;10.252;2023-09-30T05:05:54;11.70;99.90
3186;DHT22;1604;53.700;10.252;2023-09-30T05:08:57;11.70;99.90
3186;DHT22;1604;53.700;10.252;2023-09-30T05:12:01;11.70;99.90
3186;DHT22;1604;53.700;10.252;2023-09-30T05:15:05;11.70;99.90
3186;DHT22;1604;53.700;10.252;2023-09-30T05:18:08;11.70;99.90
3186;DHT22;1604;53.700;10.252;2023-09-30T05:21:10;11.70;99.90
3186;DHT22;1604;53.700;10.252;2023-09-30T05:24:12;11.70;99.90
3186;DHT22;1604;53.700;10.252;2023-09-30T05:27:15;11.70;99.90
3186;DHT22;1604;53.700;10.252;2023-09-30T05:30:17;11.70;99.90
3186;DHT22;1604;53.700;10.252;2023-09-30T05:33:21;11.80;99.90
3186;DHT22;1604;53.700;10.252;2023-09-30T05:36:23;11.70;99.90
3186;DHT22;1604;53.700;10.252;2023-09-30T05:39:25;11.80;99.90
3186;DHT22;1604;53.700;10.252;2023-09-30T05:42:28;11.80;99.90
3186;DHT22;1604;53.700;10.252;2023-09-30T05:45:31;11.80;99.90
3186;DHT22;1604;53.700;10.252;2023-09-30T05:48:37;11.80;99.90
3186;DHT22;1604;53.700;10.252;2023-09-30T05:51:40;11.80;99.90
3186;DHT22;1604;53.700;10.252;2023-09-30T05:54:42;11.80;99.90
3186;DHT22;1604;53.700;10.252;2023-09-30T05:57:56;11.80;99.90
3186;DHT22;1604;53.700;10.252;2023-09-30T06:01:01;11.80;99.90
3186;DHT22;1604;53.700;10.252;2023-09-30T06:04:06;11.80;99.90
3186;DHT22;1604;53.700;10.252;2023-09-30T06:07:08;11.80;99.90
3186;DHT22;1604;53.700;10.252;2023-09-30T06:10:11;11.80;99.90
3186;DHT22;1604;53.700;10.252;2023-09-30T06:13:20;11.80;99.90
3186;DHT22;1604;53.700;10.252;2023-09-30T06:16:21;11.90;99.90
3186;DHT22;1604;53.700;10.252;2023-09-30T06:19:24;11.90;99.90
3186;DHT22;1604;53.700;10.252;2023-09-30T06:22:26;11.90;99.90
3186;DHT22;1604;53.700;10.252;2023-09-30T06:25:28;12.00;99.90
3186;DHT22;1604;53.700;10.252;2023-09-30T06:28:32;12.00;99.90
3186;DHT22;1604;53.700;10.252;2023-09-30T06:31:41;12.10;99.90
3186;DHT22;1604;53.700;10.252;2023-09-30T06:34:44;12.20;99.90
3186;DHT22;1604;53.700;10.252;2023-09-30T06:37:45;12.20;99.90
3186;DHT22;1604;53.700;10.252;2023-09-30T06:40:48;12.30;99.90
3186;DHT22;1604;53.700;10.252;2023-09-30T06:43:51;12.40;99.90
3186;DHT22;1604;53.700;10.252;2023-09-30T06:46:53;12.50;99.90
3186;DHT22;1604;53.700;10.252;2023-09-30T06:49:55;12.60;99.90
3186;DHT22;1604;53.700;10.252;2023-09-30T06:52:57;12.70;99.90
3186;DHT22;1604;53.700;10.252;2023-09-30T06:55:59;12.70;99.90
3186;DHT22;1604;53.700;10.252;2023-09-30T06:59:05;12.80;99.90
3186;DHT22;1604;53.700;10.252;2023-09-30T07:02:07;12.90;99.90
3186;DHT22;1604;53.700;10.252;2023-09-30T07:05:10;13.00;99.90
3186;DHT22;1604;53.700;10.252;2023-09-30T07:08:12;13.00;99.90
3186;DHT22;1604;53.700;10.252;2023-09-30T07:11:14;13.20;99.90
3186;DHT22;1604;53.700;10.252;2023-09-30T07:14:18;13.30;99.90
3186;DHT22;1604;53.700;10.252;2023-09-30T07:17:20;13.40;99.90
3186;DHT22;1604;53.700;10.252;2023-09-30T07:20:22;13.60;99.90
3186;DHT22;1604;53.700;10.252;2023-09-30T07:23:24;13.80;99.90
3186;DHT22;1604;53.700;10.252;2023-09-30T07:26:26;14.00;99.90
3186;DHT22;1604;53.700;10.252;2023-09-30T07:29:29;14.10;99.90
3186;DHT22;1604;53.700;10.252;2023-09-30T07:32:31;14.30;99.90
3186;DHT22;1604;53.700;10.252;2023-09-30T07:35:34;14.40;99.90
3186;DHT22;1604;53.700;10.252;2023-09-30T07:38:36;14.60;99.90
3186;DHT22;1604;53.700;10.252;2023-09-30T07:41:38;14.70;99.90
3186;DHT22;1604;53.700;10.252;2023-09-30T07:44:41;14.80;99.90
3186;DHT22;1604;53.700;10.252;2023-09-30T07:47:43;15.00;99.90
3186;DHT22;1604;53.700;10.252;2023-09-30T07:50:46;15.10;99.90
3186;DHT22;1604;53.700;10.252;2023-09-30T07:53:48;15.20;99.90
3186;DHT22;1604;53.700;10.252;2023-09-30T07:56:51;15.40;99.90
3186;DHT22;1604;53.700;10.252;2023-09-30T07:59:57;15.50;99.90
3186;DHT22;1604;53.700;10.252;2023-09-30T08:02:59;15.60;99.90
3186;DHT22;1604;53.700;10.252;2023-09-30T08:06:03;15.80;99.90
3186;DHT22;1604;53.700;10.252;2023-09-30T08:09:05;15.90;99.90
3186;DHT22;1604;53.700;10.252;2023-09-30T08:12:10;16.00;99.90
3186;DHT22;1604;53.700;10.252;2023-09-30T08:15:14;16.20;99.90
3186;DHT22;1604;53.700;10.252;2023-09-30T08:18:16;16.30;99.90
3186;DHT22;1604;53.700;10.252;2023-09-30T08:21:19;16.40;99.90
3186;DHT22;1604;53.700;10.252;2023-09-30T08:24:21;16.50;99.90
3186;DHT22;1604;53.700;10.252;2023-09-30T08:27:22;16.60;99.90
3186;DHT22;1604;53.700;10.252;2023-09-30T08:30:26;16.70;99.90
3186;DHT22;1604;53.700;10.252;2023-09-30T08:33:29;16.70;99.90
3186;DHT22;1604;53.700;10.252;2023-09-30T08:36:31;16.70;99.90
3186;DHT22;1604;53.700;10.252;2023-09-30T08:39:38;16.70;99.90
3186;DHT22;1604;53.700;10.252;2023-09-30T08:42:40;16.80;99.90
3186;DHT22;1604;53.700;10.252;2023-09-30T08:45:46;16.80;99.90
3186;DHT22;1604;53.700;10.252;2023-09-30T08:48:49;16.80;99.90
3186;DHT22;1604;53.700;10.252;2023-09-30T08:51:51;16.80;99.90
3186;DHT22;1604;53.700;10.252;2023-09-30T08:54:53;16.70;99.90
3186;DHT22;1604;53.700;10.252;2023-09-30T08:57:58;16.80;99.90
3186;DHT22;1604;53.700;10.252;2023-09-30T09:01:02;16.80;99.90
3186;DHT22;1604;53.700;10.252;2023-09-30T09:04:04;16.80;99.90
3186;DHT22;1604;53.700;10.252;2023-09-30T09:07:08;16.90;99.90
3186;DHT22;1604;53.700;10.252;2023-09-30T09:10:11;16.90;99.90
3186;DHT22;1604;53.700;10.252;2023-09-30T09:13:14;17.00;99.90
3186;DHT22;1604;53.700;10.252;2023-09-30T09:16:18;17.00;99.90
3186;DHT22;1604;53.700;10.252;2023-09-30T09:19:20;17.20;99.90
3186;DHT22;1604;53.700;10.252;2023-09-30T09:22:22;17.30;99.90
3186;DHT22;1604;53.700;10.252;2023-09-30T09:25:25;17.30;99.90
3186;DHT22;1604;53.700;10.252;2023-09-30T09:28:34;17.40;99.90
3186;DHT22;1604;53.700;10.252;2023-09-30T09:31:38;17.50;99.90
3186;DHT22;1604;53.700;10.252;2023-09-30T09:34:41;17.40;99.90
3186;DHT22;1604;53.700;10.252;2023-09-30T09:37:43;17.50;99.90
3186;DHT22;1604;53.700;10.252;2023-09-30T09:40:59;17.60;99.90
3186;DHT22;1604;53.700;10.252;2023-09-30T09:44:01;17.70;99.40
3186;DHT22;1604;53.700;10.252;2023-09-30T09:47:05;17.70;99.40
3186;DHT22;1604;53.700;10.252;2023-09-30T09:50:09;17.70;99.30
3186;DHT22;1604;53.700;10.252;2023-09-30T09:53:12;17.80;99.10
3186;DHT22;1604;53.700;10.252;2023-09-30T09:56:16;17.90;99.40
3186;DHT22;1604;53.700;10.252;2023-09-30T09:59:22;17.90;98.70
3186;DHT22;1604;53.700;10.252;2023-09-30T10:02:28;18.00;99.20
3186;DHT22;1604;53.700;10.252;2023-09-30T10:05:31;18.20;98.60
3186;DHT22;1604;53.700;10.252;2023-09-30T10:08:36;18.20;98.30
3186;DHT22;1604;53.700;10.252;2023-09-30T10:11:42;18.30;97.50
3186;DHT22;1604;53.700;10.252;2023-09-30T10:14:44;18.30;97.40
3186;DHT22;1604;53.700;10.252;2023-09-30T10:18:03;18.30;98.40
3186;DHT22;1604;53.700;10.252;2023-09-30T10:21:08;18.40;98.20
3186;DHT22;1604;53.700;10.252;2023-09-30T10:24:34;18.50;97.50
3186;DHT22;1604;53.700;10.252;2023-09-30T10:27:36;18.60;96.80
3186;DHT22;1604;53.700;10.252;2023-09-30T10:31:08;18.80;97.20
3186;DHT22;1604;53.700;10.252;2023-09-30T10:34:21;19.00;97.10
3186;DHT22;1604;53.700;10.252;2023-09-30T10:37:24;19.20;96.10
3186;DHT22;1604;53.700;10.252;2023-09-30T10:40:27;19.30;95.00
3186;DHT22;1604;53.700;10.252;2023-09-30T10:43:29;19.30;94.40
3186;DHT22;1604;53.700;10.252;2023-09-30T10:46:32;19.40;94.60
3186;DHT22;1604;53.700;10.252;2023-09-30T10:49:38;19.40;91.60
3186;DHT22;1604;53.700;10.252;2023-09-30T10:52:41;19.40;92.70
3186;DHT22;1604;53.700;10.252;2023-09-30T10:55:44;19.50;92.90
3186;DHT22;1604;53.700;10.252;2023-09-30T10:58:52;19.60;92.70
3186;DHT22;1604;53.700;10.252;2023-09-30T11:01:54;19.90;92.40
3186;DHT22;1604;53.700;10.252;2023-09-30T11:05:01;20.00;91.40
3186;DHT22;1604;53.700;10.252;2023-09-30T11:08:09;20.10;91.60
3186;DHT22;1604;53.700;10.252;2023-09-30T11:11:11;20.10;91.70
3186;DHT22;1604;53.700;10.252;2023-09-30T11:14:21;20.10;89.30
3186;DHT22;1604;53.700;10.252;2023-09-30T11:17:24;20.10;88.80
3186;DHT22;1604;53.700;10.252;2023-09-30T11:20:27;20.10;89.20
3186;DHT22;1604;53.700;10.252;2023-09-30T11:23:29;20.10;90.80
3186;DHT22;1604;53.700;10.252;2023-09-30T11:26:32;20.10;90.40
3186;DHT22;1604;53.700;10.252;2023-09-30T11:29:34;20.10;90.10
3186;DHT22;1604;53.700;10.252;2023-09-30T11:32:36;20.00;88.60
3186;DHT22;1604;53.700;10.252;2023-09-30T11:35:40;19.90;89.70
3186;DHT22;1604;53.700;10.252;2023-09-30T11:38:45;19.80;88.70
3186;DHT22;1604;53.700;10.252;2023-09-30T11:41:48;19.70;89.00
3186;DHT22;1604;53.700;10.252;2023-09-30T11:44:50;19.80;89.80
3186;DHT22;1604;53.700;10.252;2023-09-30T11:47:52;20.00;89.60
3186;DHT22;1604;53.700;10.252;2023-09-30T11:50:58;20.30;88.00
3186;DHT22;1604;53.700;10.252;2023-09-30T11:54:03;20.40;87.90
3186;DHT22;1604;53.700;10.252;2023-09-30T11:57:07;20.50;87.10
3186;DHT22;1604;53.700;10.252;2023-09-30T12:00:13;20.30;87.80
3186;DHT22;1604;53.700;10.252;2023-09-30T12:03:15;20.20;87.70
3186;DHT22;1604;53.700;10.252;2023-09-30T12:06:23;20.00;86.00
3186;DHT22;1604;53.700;10.252;2023-09-30T12:09:25;20.00;87.20
3186;DHT22;1604;53.700;10.252;2023-09-30T12:12:28;19.90;85.60
3186;DHT22;1604;53.700;10.252;2023-09-30T12:15:29;19.80;85.80
3186;DHT22;1604;53.700;10.252;2023-09-30T12:18:31;19.60;87.30
3186;DHT22;1604;53.700;10.252;2023-09-30T12:21:35;19.50;89.10
3186;DHT22;1604;53.700;10.252;2023-09-30T12:24:37;19.50;91.10
3186;DHT22;1604;53.700;10.252;2023-09-30T12:27:40;19.50;90.00
3186;DHT22;1604;53.700;10.252;2023-09-30T12:30:42;19.60;87.60
3186;DHT22;1604;53.700;10.252;2023-09-30T12:33:44;19.60;88.90
3186;DHT22;1604;53.700;10.252;2023-09-30T12:36:52;19.70;89.40
3186;DHT22;1604;53.700;10.252;2023-09-30T12:39:54;19.90;88.90
3186;DHT22;1604;53.700;10.252;2023-09-30T12:42:56;20.00;87.10
3186;DHT22;1604;53.700;10.252;2023-09-30T12:45:58;20.00;89.00
3186;DHT22;1604;53.700;10.252;2023-09-30T12:49:00;20.00;88.90
3186;DHT22;1604;53.700;10.252;2023-09-30T12:52:04;20.10;87.80
3186;DHT22;1604;53.700;10.252;2023-09-30T12:55:06;20.10;87.10
3186;DHT22;1604;53.700;10.252;2023-09-30T12:58:08;20.00;87.10
3186;DHT22;1604;53.700;10.252;2023-09-30T13:01:12;19.80;88.50
3186;DHT22;1604;53.700;10.252;2023-09-30T13:04:14;19.70;88.50
3186;DHT22;1604;53.700;10.252;2023-09-30T13:07:18;19.50;89.70
3186;DHT22;1604;53.700;10.252;2023-09-30T13:10:20;19.50;91.40
3186;DHT22;1604;53.700;10.252;2023-09-30T13:13:24;19.30;91.30
3186;DHT22;1604;53.700;10.252;2023-09-30T13:16:26;19.30;92.30
3186;DHT22;1604;53.700;10.252;2023-09-30T13:19:28;19.20;92.40
3186;DHT22;1604;53.700;10.252;2023-09-30T13:22:31;19.20;92.50
3186;DHT22;1604;53.700;10.252;2023-09-30T13:25:33;19.20;93.00
3186;DHT22;1604;53.700;10.252;2023-09-30T13:28:35;19.10;92.50
3186;DHT22;1604;53.700;10.252;2023-09-30T13:31:37;19.10;92.90
3186;DHT22;1604;53.700;10.252;2023-09-30T13:34:39;19.10;92.90
3186;DHT22;1604;53.700;10.252;2023-09-30T13:37:43;19.20;92.10
3186;DHT22;1604;53.700;10.252;2023-09-30T13:40:45;19.20;91.40
3186;DHT22;1604;53.700;10.252;2023-09-30T13:43:47;19.30;89.20
3186;DHT22;1604;53.700;10.252;2023-09-30T13:46:49;19.20;90.30
3186;DHT22;1604;53.700;10.252;2023-09-30T13:49:51;19.30;90.60
3186;DHT22;1604;53.700;10.252;2023-09-30T13:52:55;19.30;90.80
3186;DHT22;1604;53.700;10.252;2023-09-30T13:55:57;19.40;92.10
3186;DHT22;1604;53.700;10.252;2023-09-30T13:58:59;19.50;90.40
3186;DHT22;1604;53.700;10.252;2023-09-30T14:02:01;19.50;90.00
3186;DHT22;1604;53.700;10.252;2023-09-30T14:05:04;19.40;89.80
3186;DHT22;1604;53.700;10.252;2023-09-30T14:08:09;19.30;89.00
3186;DHT22;1604;53.700;10.252;2023-09-30T14:11:11;19.10;91.10
3186;DHT22;1604;53.700;10.252;2023-09-30T14:14:13;19.10;91.60
3186;DHT22;1604;53.700;10.252;2023-09-30T14:17:15;19.00;93.00
3186;DHT22;1604;53.700;10.252;2023-09-30T14:20:17;19.00;93.10
3186;DHT22;1604;53.700;10.252;2023-09-30T14:23:20;18.90;93.30
3186;DHT22;1604;53.700;10.252;2023-09-30T14:26:24;18.90;92.70
3186;DHT22;1604;53.700;10.252;2023-09-30T14:29:26;18.80;92.90
3186;DHT22;1604;53.700;10.252;2023-09-30T14:32:28;18.70;92.70
3186;DHT22;1604;53.700;10.252;2023-09-30T14:35:32;18.70;92.60
3186;DHT22;1604;53.700;10.252;2023-09-30T14:38:36;18.60;93.00
3186;DHT22;1604;53.700;10.252;2023-09-30T14:41:38;18.50;93.30
3186;DHT22;1604;53.700;10.252;2023-09-30T14:44:40;18.40;94.10
3186;DHT22;1604;53.700;10.252;2023-09-30T14:47:43;18.30;94.70
3186;DHT22;1604;53.700;10.252;2023-09-30T14:50:49;18.20;94.90
3186;DHT22;1604;53.700;10.252;2023-09-30T14:53:52;18.20;95.40
3186;DHT22;1604;53.700;10.252;2023-09-30T14:56:54;18.10;96.00
3186;DHT22;1604;53.700;10.252;2023-09-30T14:59:57;18.00;95.60
3186;DHT22;1604;53.700;10.252;2023-09-30T15:02:59;18.00;96.40
3186;DHT22;1604;53.700;10.252;2023-09-30T15:06:01;17.90;96.30
3186;DHT22;1604;53.700;10.252;2023-09-30T15:09:06;17.90;96.70
3186;DHT22;1604;53.700;10.252;2023-09-30T15:12:10;17.90;96.70
3186;DHT22;1604;53.700;10.252;2023-09-30T15:15:12;17.90;96.60
3186;DHT22;1604;53.700;10.252;2023-09-30T15:18:14;17.90;96.30
3186;DHT22;1604;53.700;10.252;2023-09-30T15:21:16;17.90;96.70
3186;DHT22;1604;53.700;10.252;2023-09-30T15:24:19;17.80;96.40
3186;DHT22;1604;53.700;10.252;2023-09-30T15:27:21;17.80;97.00
3186;DHT22;1604;53.700;10.252;2023-09-30T15:30:25;17.80;97.10
3186;DHT22;1604;53.700;10.252;2023-09-30T15:33:28;17.80;96.90
3186;DHT22;1604;53.700;10.252;2023-09-30T15:36:30;17.70;96.80
3186;DHT22;1604;53.700;10.252;2023-09-30T15:39:37;17.60;96.60
3186;DHT22;1604;53.700;10.252;2023-09-30T15:42:39;17.60;97.20
3186;DHT22;1604;53.700;10.252;2023-09-30T15:45:41;17.50;97.20
3186;DHT22;1604;53.700;10.252;2023-09-30T15:48:43;17.40;97.00
3186;DHT22;1604;53.700;10.252;2023-09-30T15:51:46;17.30;96.80
3186;DHT22;1604;53.700;10.252;2023-09-30T15:54:50;17.20;96.90
3186;DHT22;1604;53.700;10.252;2023-09-30T15:57:53;17.20;97.10
3186;DHT22;1604;53.700;10.252;2023-09-30T16:00:55;17.20;97.30
3186;DHT22;1604;53.700;10.252;2023-09-30T16:03:57;17.10;97.50
3186;DHT22;1604;53.700;10.252;2023-09-30T16:06:59;17.10;97.20
3186;DHT22;1604;53.700;10.252;2023-09-30T16:10:03;17.00;97.40
3186;DHT22;1604;53.700;10.252;2023-09-30T16:13:07;17.00;97.40
3186;DHT22;1604;53.700;10.252;2023-09-30T16:16:09;16.90;97.70
3186;DHT22;1604;53.700;10.252;2023-09-30T16:19:11;16.90;97.70
3186;DHT22;1604;53.700;10.252;2023-09-30T16:22:13;16.80;97.60
3186;DHT22;1604;53.700;10.252;2023-09-30T16:25:17;16.80;98.00
3186;DHT22;1604;53.700;10.252;2023-09-30T16:28:19;16.70;98.20
3186;DHT22;1604;53.700;10.252;2023-09-30T16:31:20;16.70;98.60
3186;DHT22;1604;53.700;10.252;2023-09-30T16:34:22;16.60;98.80
3186;DHT22;1604;53.700;10.252;2023-09-30T16:37:24;16.60;99.00
3186;DHT22;1604;53.700;10.252;2023-09-30T16:40:28;16.50;99.40
3186;DHT22;1604;53.700;10.252;2023-09-30T16:43:30;16.50;99.60
3186;DHT22;1604;53.700;10.252;2023-09-30T16:46:32;16.40;99.90
3186;DHT22;1604;53.700;10.252;2023-09-30T16:49:33;16.30;99.90
3186;DHT22;1604;53.700;10.252;2023-09-30T16:52:36;16.30;99.90
3186;DHT22;1604;53.700;10.252;2023-09-30T16:55:39;16.20;99.90
3186;DHT22;1604;53.700;10.252;2023-09-30T16:58:41;16.20;99.90
3186;DHT22;1604;53.700;10.252;2023-09-30T17:01:43;16.10;99.90
3186;DHT22;1604;53.700;10.252;2023-09-30T17:04:45;16.10;99.90
3186;DHT22;1604;53.700;10.252;2023-09-30T17:07:47;16.00;99.90
3186;DHT22;1604;53.700;10.252;2023-09-30T17:10:51;16.00;99.90
3186;DHT22;1604;53.700;10.252;2023-09-30T17:13:55;15.90;99.90
3186;DHT22;1604;53.700;10.252;2023-09-30T17:16:57;15.90;99.90
3186;DHT22;1604;53.700;10.252;2023-09-30T17:19:59;15.80;99.90
3186;DHT22;1604;53.700;10.252;2023-09-30T17:23:01;15.80;99.90
3186;DHT22;1604;53.700;10.252;2023-09-30T17:26:04;15.70;99.90
3186;DHT22;1604;53.700;10.252;2023-09-30T17:29:06;15.70;99.90
3186;DHT22;1604;53.700;10.252;2023-09-30T17:32:08;15.60;99.90
3186;DHT22;1604;53.700;10.252;2023-09-30T17:35:10;15.60;99.90
3186;DHT22;1604;53.700;10.252;2023-09-30T17:38:12;15.60;99.90
3186;DHT22;1604;53.700;10.252;2023-09-30T17:41:15;15.50;99.90
3186;DHT22;1604;53.700;10.252;2023-09-30T17:44:18;15.40;99.90
3186;DHT22;1604;53.700;10.252;2023-09-30T17:47:19;15.40;99.90
3186;DHT22;1604;53.700;10.252;2023-09-30T17:50:22;15.40;99.90
3186;DHT22;1604;53.700;10.252;2023-09-30T17:53:24;15.30;99.90
3186;DHT22;1604;53.700;10.252;2023-09-30T17:56:27;15.30;99.90
3186;DHT22;1604;53.700;10.252;2023-09-30T17:59:31;15.30;99.90
3186;DHT22;1604;53.700;10.252;2023-09-30T18:02:33;15.20;99.90
3186;DHT22;1604;53.700;10.252;2023-09-30T18:05:35;15.20;99.90
3186;DHT22;1604;53.700;10.252;2023-09-30T18:08:43;15.10;99.90
3186;DHT22;1604;53.700;10.252;2023-09-30T18:11:48;15.10;99.90
3186;DHT22;1604;53.700;10.252;2023-09-30T18:14:51;15.10;99.90
3186;DHT22;1604;53.700;10.252;2023-09-30T18:17:56;15.10;99.90
3186;DHT22;1604;53.700;10.252;2023-09-30T18:20:58;15.10;99.90
3186;DHT22;1604;53.700;10.252;2023-09-30T18:24:00;15.10;99.90
3186;DHT22;1604;53.700;10.252;2023-09-30T18:27:04;15.00;99.90
3186;DHT22;1604;53.700;10.252;2023-09-30T18:30:07;15.00;99.90
3186;DHT22;1604;53.700;10.252;2023-09-30T18:33:10;15.00;99.90
3186;DHT22;1604;53.700;10.252;2023-09-30T18:36:14;15.00;99.90
3186;DHT22;1604;53.700;10.252;2023-09-30T18:39:16;14.90;99.90
3186;DHT22;1604;53.700;10.252;2023-09-30T18:42:21;14.90;99.90
3186;DHT22;1604;53.700;10.252;2023-09-30T18:45:24;14.90;99.90
3186;DHT22;1604;53.700;10.252;2023-09-30T18:48:28;14.90;99.90
3186;DHT22;1604;53.700;10.252;2023-09-30T18:51:30;14.90;99.90
3186;DHT22;1604;53.700;10.252;2023-09-30T18:54:32;14.90;99.90
3186;DHT22;1604;53.700;10.252;2023-09-30T18:57:35;14.80;99.90
3186;DHT22;1604;53.700;10.252;2023-09-30T19:00:39;14.80;99.90
3186;DHT22;1604;53.700;10.252;2023-09-30T19:03:42;14.80;99.90
3186;DHT22;1604;53.700;10.252;2023-09-30T19:06:44;14.80;99.90
3186;DHT22;1604;53.700;10.252;2023-09-30T19:09:47;14.80;99.90
3186;DHT22;1604;53.700;10.252;2023-09-30T19:12:50;14.80;99.90
3186;DHT22;1604;53.700;10.252;2023-09-30T19:15:52;14.80;99.90
3186;DHT22;1604;53.700;10.252;2023-09-30T19:18:54;14.80;99.90
3186;DHT22;1604;53.700;10.252;2023-09-30T19:21:56;14.80;99.90
3186;DHT22;1604;53.700;10.252;2023-09-30T19:24:58;14.80;99.90
3186;DHT22;1604;53.700;10.252;2023-09-30T19:28:01;14.80;99.90
3186;DHT22;1604;53.700;10.252;2023-09-30T19:31:03;14.80;99.90
3186;DHT22;1604;53.700;10.252;2023-09-30T19:34:05;14.80;99.90